Aviation Digital Data Service (ADDS)

Output produced by METARs form (1610 UTC 23 January 2019)
found at http://www.aviationweather.gov/metar/data/
 
METAR text: EHAM 231555Z 02004KT 300V110 9000 FEW009 BKN017 M00/M03 Q1003 TEMPO 7000 BKN009
Conditions at: EHAM (AMSTERDAM/SCHIPH, NL) observed 1555 UTC 23 January 2019
Temperature: 0.0°C (32°F)
Dewpoint: -3.0°C (27°F) [RH = 80%]
Pressure (altimeter): 29.62 inches Hg (1003.0 mb)
Winds: from the NNE (20 degrees) at 5 MPH (4 knots; 2.1 m/s)
Visibility: 6 miles ( 9 km)
Ceiling: 1700 feet AGL
Clouds: few clouds at 900 feet AGL
broken clouds at 1700 feet AGL
Weather: no significant weather observed at this time

METAR text: EHAM 231525Z 05008KT 010V080 7000 BKN009 OVC010 M00/M02 Q1002 NOSIG
Conditions at: EHAM (AMSTERDAM/SCHIPH, NL) observed 1525 UTC 23 January 2019
Temperature: 0.0°C (32°F)
Dewpoint: -2.0°C (28°F) [RH = 86%]
Pressure (altimeter): 29.59 inches Hg (1002.0 mb)
Winds: from the NE (50 degrees) at 9 MPH (8 knots; 4.1 m/s)
Visibility: 4 miles ( 7 km)
Ceiling: 900 feet AGL
Clouds: broken clouds at 900 feet AGL
overcast cloud deck at 1000 feet AGL
Weather: no significant weather observed at this time

METAR text: EHAM 231455Z 06008KT 030V090 7000 OVC010 M00/M02 Q1002 TEMPO BKN009
Conditions at: EHAM (AMSTERDAM/SCHIPH, NL) observed 1455 UTC 23 January 2019
Temperature: 0.0°C (32°F)
Dewpoint: -2.0°C (28°F) [RH = 86%]
Pressure (altimeter): 29.59 inches Hg (1002.0 mb)
Winds: from the ENE (60 degrees) at 9 MPH (8 knots; 4.1 m/s)
Visibility: 4 miles ( 7 km)
Ceiling: 1000 feet AGL
Clouds: overcast cloud deck at 1000 feet AGL
Weather: no significant weather observed at this time

METAR text: EHAM 231425Z 07007KT 040V100 8000 OVC011 M00/M02 Q1002 NOSIG
Conditions at: EHAM (AMSTERDAM/SCHIPH, NL) observed 1425 UTC 23 January 2019
Temperature: 0.0°C (32°F)
Dewpoint: -2.0°C (28°F) [RH = 86%]
Pressure (altimeter): 29.59 inches Hg (1002.0 mb)
Winds: from the ENE (70 degrees) at 8 MPH (7 knots; 3.6 m/s)
Visibility: 5 miles ( 8 km)
Ceiling: 1100 feet AGL
Clouds: overcast cloud deck at 1100 feet AGL
Weather: no significant weather observed at this time

METAR text: EHAM 231355Z 04006KT 8000 OVC011 M00/M02 Q1001 NOSIG
Conditions at: EHAM (AMSTERDAM/SCHIPH, NL) observed 1355 UTC 23 January 2019
Temperature: 0.0°C (32°F)
Dewpoint: -2.0°C (28°F) [RH = 86%]
Pressure (altimeter): 29.56 inches Hg (1001.0 mb)
Winds: from the NE (40 degrees) at 7 MPH (6 knots; 3.1 m/s)
Visibility: 5 miles ( 8 km)
Ceiling: 1100 feet AGL
Clouds: overcast cloud deck at 1100 feet AGL
Weather: no significant weather observed at this time

METAR text: EHAM 231325Z 06007KT 9999 OVC012 M00/M03 Q1001 NOSIG
Conditions at: EHAM (AMSTERDAM/SCHIPH, NL) observed 1325 UTC 23 January 2019
Temperature: 0.0°C (32°F)
Dewpoint: -3.0°C (27°F) [RH = 80%]
Pressure (altimeter): 29.56 inches Hg (1001.0 mb)
Winds: from the ENE (60 degrees) at 8 MPH (7 knots; 3.6 m/s)
Visibility: 6 or more miles (10+ km)
Ceiling: 1200 feet AGL
Clouds: overcast cloud deck at 1200 feet AGL
Weather: no significant weather observed at this time

METAR text: EHAM 231255Z 07005KT 9999 BKN012 M00/M03 Q1001 NOSIG
Conditions at: EHAM (AMSTERDAM/SCHIPH, NL) observed 1255 UTC 23 January 2019
Temperature: 0.0°C (32°F)
Dewpoint: -3.0°C (27°F) [RH = 80%]
Pressure (altimeter): 29.56 inches Hg (1001.0 mb)
Winds: from the ENE (70 degrees) at 6 MPH (5 knots; 2.6 m/s)
Visibility: 6 or more miles (10+ km)
Ceiling: 1200 feet AGL
Clouds: broken clouds at 1200 feet AGL
Weather: no significant weather observed at this time

METAR text: EHAM 231225Z 07007KT 040V100 9999 BKN012 M00/M03 Q1001 NOSIG
Conditions at: EHAM (AMSTERDAM/SCHIPH, NL) observed 1225 UTC 23 January 2019
Temperature: 0.0°C (32°F)
Dewpoint: -3.0°C (27°F) [RH = 80%]
Pressure (altimeter): 29.56 inches Hg (1001.0 mb)
Winds: from the ENE (70 degrees) at 8 MPH (7 knots; 3.6 m/s)
Visibility: 6 or more miles (10+ km)
Ceiling: 1200 feet AGL
Clouds: broken clouds at 1200 feet AGL
Weather: no significant weather observed at this time

METAR text: EHAM 231155Z 07006KT 040V100 9999 OVC012 M00/M03 Q1001 NOSIG
Conditions at: EHAM (AMSTERDAM/SCHIPH, NL) observed 1155 UTC 23 January 2019
Temperature: 0.0°C (32°F)
Dewpoint: -3.0°C (27°F) [RH = 80%]
Pressure (altimeter): 29.56 inches Hg (1001.0 mb)
Winds: from the ENE (70 degrees) at 7 MPH (6 knots; 3.1 m/s)
Visibility: 6 or more miles (10+ km)
Ceiling: 1200 feet AGL
Clouds: overcast cloud deck at 1200 feet AGL
Weather: no significant weather observed at this time

METAR text: EHAM 231125Z 07006KT 030V110 9999 OVC013 M00/M03 Q1001 NOSIG
Conditions at: EHAM (AMSTERDAM/SCHIPH, NL) observed 1125 UTC 23 January 2019
Temperature: 0.0°C (32°F)
Dewpoint: -3.0°C (27°F) [RH = 80%]
Pressure (altimeter): 29.56 inches Hg (1001.0 mb)
Winds: from the ENE (70 degrees) at 7 MPH (6 knots; 3.1 m/s)
Visibility: 6 or more miles (10+ km)
Ceiling: 1300 feet AGL
Clouds: overcast cloud deck at 1300 feet AGL
Weather: no significant weather observed at this time

METAR text: EHAM 231055Z 08006KT 9999 OVC013 00/M03 Q1000 NOSIG
Conditions at: EHAM (AMSTERDAM/SCHIPH, NL) observed 1055 UTC 23 January 2019
Temperature: 0.0°C (32°F)
Dewpoint: -3.0°C (27°F) [RH = 80%]
Pressure (altimeter): 29.53 inches Hg (1000.0 mb)
Winds: from the E (80 degrees) at 7 MPH (6 knots; 3.1 m/s)
Visibility: 6 or more miles (10+ km)
Ceiling: 1300 feet AGL
Clouds: overcast cloud deck at 1300 feet AGL
Weather: no significant weather observed at this time

METAR text: EHAM 231025Z 06006KT 020V090 9999 SCT014 BKN017 00/M03 Q1000 NOSIG
Conditions at: EHAM (AMSTERDAM/SCHIPH, NL) observed 1025 UTC 23 January 2019
Temperature: 0.0°C (32°F)
Dewpoint: -3.0°C (27°F) [RH = 80%]
Pressure (altimeter): 29.53 inches Hg (1000.0 mb)
Winds: from the ENE (60 degrees) at 7 MPH (6 knots; 3.1 m/s)
Visibility: 6 or more miles (10+ km)
Ceiling: 1700 feet AGL
Clouds: scattered clouds at 1400 feet AGL
broken clouds at 1700 feet AGL
Weather: no significant weather observed at this time

METAR text: EHAM 230955Z 07006KT 040V110 8000 FEW012 SCT016 M00/M02 Q1000 TEMPO FEW012 BKN016
Conditions at: EHAM (AMSTERDAM/SCHIPH, NL) observed 0955 UTC 23 January 2019
Temperature: 0.0°C (32°F)
Dewpoint: -2.0°C (28°F) [RH = 86%]
Pressure (altimeter): 29.53 inches Hg (1000.0 mb)
Winds: from the ENE (70 degrees) at 7 MPH (6 knots; 3.1 m/s)
Visibility: 5 miles ( 8 km)
Ceiling: at least 12,000 feet AGL
Clouds: few clouds at 1200 feet AGL
scattered clouds at 1600 feet AGL
Weather: no significant weather observed at this time

METAR text: EHAM 230925Z 08005KT 9999 FEW012 BKN016 M00/M02 Q0999 NOSIG
Conditions at: EHAM (AMSTERDAM/SCHIPH, NL) observed 0925 UTC 23 January 2019
Temperature: 0.0°C (32°F)
Dewpoint: -2.0°C (28°F) [RH = 86%]
Pressure (altimeter): 29.50 inches Hg (999.0 mb)
Winds: from the E (80 degrees) at 6 MPH (5 knots; 2.6 m/s)
Visibility: 6 or more miles (10+ km)
Ceiling: 1600 feet AGL
Clouds: few clouds at 1200 feet AGL
broken clouds at 1600 feet AGL
Weather: no significant weather observed at this time

METAR text: EHAM 230855Z 07008KT 040V110 9999 FEW012 BKN016 M01/M03 Q0999 BECMG 7000
Conditions at: EHAM (AMSTERDAM/SCHIPH, NL) observed 0855 UTC 23 January 2019
Temperature: -1.0°C (30°F)
Dewpoint: -3.0°C (27°F) [RH = 86%]
Pressure (altimeter): 29.50 inches Hg (999.0 mb)
Winds: from the ENE (70 degrees) at 9 MPH (8 knots; 4.1 m/s)
Visibility: 6 or more miles (10+ km)
Ceiling: 1600 feet AGL
Clouds: few clouds at 1200 feet AGL
broken clouds at 1600 feet AGL
Weather: no significant weather observed at this time

METAR text: EHAM 230825Z 06008KT 020V100 9999 FEW009 SCT013 M01/M03 Q0999 BECMG 7000
Conditions at: EHAM (AMSTERDAM/SCHIPH, NL) observed 0825 UTC 23 January 2019
Temperature: -1.0°C (30°F)
Dewpoint: -3.0°C (27°F) [RH = 86%]
Pressure (altimeter): 29.50 inches Hg (999.0 mb)
Winds: from the ENE (60 degrees) at 9 MPH (8 knots; 4.1 m/s)
Visibility: 6 or more miles (10+ km)
Ceiling: at least 12,000 feet AGL
Clouds: few clouds at 900 feet AGL
scattered clouds at 1300 feet AGL
Weather: no significant weather observed at this time

METAR text: EHAM 230755Z 11007KT 8000 SCT009 BKN012 OVC017 M01/M02 Q0999 BECMG 7000 TEMPO SCT012 BKN017
Conditions at: EHAM (AMSTERDAM/SCHIPH, NL) observed 0755 UTC 23 January 2019
Temperature: -1.0°C (30°F)
Dewpoint: -2.0°C (28°F) [RH = 93%]
Pressure (altimeter): 29.50 inches Hg (999.0 mb)
Winds: from the ESE (110 degrees) at 8 MPH (7 knots; 3.6 m/s)
Visibility: 5 miles ( 8 km)
Ceiling: 1200 feet AGL
Clouds: scattered clouds at 900 feet AGL
broken clouds at 1200 feet AGL
overcast cloud deck at 1700 feet AGL
Weather: no significant weather observed at this time

METAR text: EHAM 230725Z 08005KT 050V110 9999 FEW010 SCT013 OVC015 M01/M03 Q0998 BECMG 7000
Conditions at: EHAM (AMSTERDAM/SCHIPH, NL) observed 0725 UTC 23 January 2019
Temperature: -1.0°C (30°F)
Dewpoint: -3.0°C (27°F) [RH = 86%]
Pressure (altimeter): 29.47 inches Hg (998.0 mb)
Winds: from the E (80 degrees) at 6 MPH (5 knots; 2.6 m/s)
Visibility: 6 or more miles (10+ km)
Ceiling: 1500 feet AGL
Clouds: few clouds at 1000 feet AGL
scattered clouds at 1300 feet AGL
overcast cloud deck at 1500 feet AGL
Weather: no significant weather observed at this time

METAR text: EHAM 230655Z 10005KT 9000 SCT008 OVC010 M01/M02 Q0998 BECMG 7000
Conditions at: EHAM (AMSTERDAM/SCHIPH, NL) observed 0655 UTC 23 January 2019
Temperature: -1.0°C (30°F)
Dewpoint: -2.0°C (28°F) [RH = 93%]
Pressure (altimeter): 29.47 inches Hg (998.0 mb)
Winds: from the E (100 degrees) at 6 MPH (5 knots; 2.6 m/s)
Visibility: 6 miles ( 9 km)
Ceiling: 1000 feet AGL
Clouds: scattered clouds at 800 feet AGL
overcast cloud deck at 1000 feet AGL
Weather: no significant weather observed at this time

METAR text: EHAM 230625Z 11006KT 080V150 8000 OVC008 M01/M02 Q0998 BECMG 7000 FEW008 BKN010
Conditions at: EHAM (AMSTERDAM/SCHIPH, NL) observed 0625 UTC 23 January 2019
Temperature: -1.0°C (30°F)
Dewpoint: -2.0°C (28°F) [RH = 93%]
Pressure (altimeter): 29.47 inches Hg (998.0 mb)
Winds: from the ESE (110 degrees) at 7 MPH (6 knots; 3.1 m/s)
Visibility: 5 miles ( 8 km)
Ceiling: 800 feet AGL
Clouds: overcast cloud deck at 800 feet AGL
Weather: no significant weather observed at this time

METAR text: EHAM 230555Z 13007KT 8000 BKN008 M01/M02 Q0998 BECMG 7000 FEW008 BKN010
Conditions at: EHAM (AMSTERDAM/SCHIPH, NL) observed 0555 UTC 23 January 2019
Temperature: -1.0°C (30°F)
Dewpoint: -2.0°C (28°F) [RH = 93%]
Pressure (altimeter): 29.47 inches Hg (998.0 mb)
Winds: from the SE (130 degrees) at 8 MPH (7 knots; 3.6 m/s)
Visibility: 5 miles ( 8 km)
Ceiling: 800 feet AGL
Clouds: broken clouds at 800 feet AGL
Weather: no significant weather observed at this time

METAR text: EHAM 230525Z 10005KT 070V130 8000 FEW008 BKN009 M00/M02 Q0997 BECMG 7000 FEW008 BKN010
Conditions at: EHAM (AMSTERDAM/SCHIPH, NL) observed 0525 UTC 23 January 2019
Temperature: 0.0°C (32°F)
Dewpoint: -2.0°C (28°F) [RH = 86%]
Pressure (altimeter): 29.44 inches Hg (997.0 mb)
Winds: from the E (100 degrees) at 6 MPH (5 knots; 2.6 m/s)
Visibility: 5 miles ( 8 km)
Ceiling: 900 feet AGL
Clouds: few clouds at 800 feet AGL
broken clouds at 900 feet AGL
Weather: no significant weather observed at this time

METAR text: EHAM 230455Z 10004KT 070V130 8000 FEW006 BKN008 M01/M02 Q0997 BECMG FEW008 BKN010
Conditions at: EHAM (AMSTERDAM/SCHIPH, NL) observed 0455 UTC 23 January 2019
Temperature: -1.0°C (30°F)
Dewpoint: -2.0°C (28°F) [RH = 93%]
Pressure (altimeter): 29.44 inches Hg (997.0 mb)
Winds: from the E (100 degrees) at 5 MPH (4 knots; 2.1 m/s)
Visibility: 5 miles ( 8 km)
Ceiling: 800 feet AGL
Clouds: few clouds at 600 feet AGL
broken clouds at 800 feet AGL
Weather: no significant weather observed at this time

METAR text: EHAM 230425Z 13007KT 080V160 6000 FEW004 BKN006 M01/M02 Q0998 NOSIG
Conditions at: EHAM (AMSTERDAM/SCHIPH, NL) observed 0425 UTC 23 January 2019
Temperature: -1.0°C (30°F)
Dewpoint: -2.0°C (28°F) [RH = 93%]
Pressure (altimeter): 29.47 inches Hg (998.0 mb)
Winds: from the SE (130 degrees) at 8 MPH (7 knots; 3.6 m/s)
Visibility: 4 miles ( 6 km)
Ceiling: 600 feet AGL
Clouds: few clouds at 400 feet AGL
broken clouds at 600 feet AGL
Weather: no significant weather observed at this time

METAR text: EHAM 230355Z 14005KT 110V170 5000 BR FEW004 OVC005 M01/M02 Q0997 BECMG 8000
Conditions at: EHAM (AMSTERDAM/SCHIPH, NL) observed 0355 UTC 23 January 2019
Temperature: -1.0°C (30°F)
Dewpoint: -2.0°C (28°F) [RH = 93%]
Pressure (altimeter): 29.44 inches Hg (997.0 mb)
Winds: from the SE (140 degrees) at 6 MPH (5 knots; 2.6 m/s)
Visibility: 3 miles ( 5 km)
Ceiling: 500 feet AGL
Clouds: few clouds at 400 feet AGL
overcast cloud deck at 500 feet AGL
Weather: BR  (mist)

METAR text: EHAM 230325Z 14008KT 120V180 5000 BR FEW004 OVC005 M01/M02 Q0997 R88/D NOSIG
Conditions at: EHAM (AMSTERDAM/SCHIPH, NL) observed 0325 UTC 23 January 2019
Temperature: -1.0°C (30°F)
Dewpoint: -2.0°C (28°F) [RH = 93%]
Pressure (altimeter): 29.44 inches Hg (997.0 mb)
Winds: from the SE (140 degrees) at 9 MPH (8 knots; 4.1 m/s)
Visibility: 3 miles ( 5 km)
Ceiling: 500 feet AGL
Clouds: few clouds at 400 feet AGL
overcast cloud deck at 500 feet AGL
Weather: BR  (mist)

METAR text: EHAM 230255Z 14007KT 110V170 4000 BR FEW004 OVC005 M01/M02 Q0998 R18R/110095 BECMG 5000
Conditions at: EHAM (AMSTERDAM/SCHIPH, NL) observed 0255 UTC 23 January 2019
Temperature: -1.0°C (30°F)
Dewpoint: -2.0°C (28°F) [RH = 93%]
Pressure (altimeter): 29.47 inches Hg (998.0 mb)
Winds: from the SE (140 degrees) at 8 MPH (7 knots; 3.6 m/s)
Visibility: 2.49 miles (4.01 km)
Ceiling: 500 feet AGL
Clouds: few clouds at 400 feet AGL
overcast cloud deck at 500 feet AGL
Weather: BR  (mist)

METAR text: EHAM 230225Z 16009KT 5000 BR FEW004 OVC005 M01/M02 Q0998 R18R/110095 BECMG 5000
Conditions at: EHAM (AMSTERDAM/SCHIPH, NL) observed 0225 UTC 23 January 2019
Temperature: -1.0°C (30°F)
Dewpoint: -2.0°C (28°F) [RH = 93%]
Pressure (altimeter): 29.47 inches Hg (998.0 mb)
Winds: from the SSE (160 degrees) at 10 MPH (9 knots; 4.6 m/s)
Visibility: 3 miles ( 5 km)
Ceiling: 500 feet AGL
Clouds: few clouds at 400 feet AGL
overcast cloud deck at 500 feet AGL
Weather: BR  (mist)

METAR text: EHAM 230155Z 16010KT 120V190 3200 BR FEW003 BKN004 M01/M02 Q0998 R18R/110095 BECMG 5000 BKN005
Conditions at: EHAM (AMSTERDAM/SCHIPH, NL) observed 0155 UTC 23 January 2019
Temperature: -1.0°C (30°F)
Dewpoint: -2.0°C (28°F) [RH = 93%]
Pressure (altimeter): 29.47 inches Hg (998.0 mb)
Winds: from the SSE (160 degrees) at 12 MPH (10 knots; 5.1 m/s)
Visibility: 1.99 miles (3.20 km)
Ceiling: 400 feet AGL
Clouds: few clouds at 300 feet AGL
broken clouds at 400 feet AGL
Weather: BR  (mist)

METAR text: EHAM 230125Z 17009KT 2800 BR SCT003 OVC004 M01/M01 Q0998 R18R/110095 BECMG 3500
Conditions at: EHAM (AMSTERDAM/SCHIPH, NL) observed 0125 UTC 23 January 2019
Temperature: -1.0°C (30°F)
Dewpoint: -1.0°C (30°F) [RH = 100%]
Pressure (altimeter): 29.47 inches Hg (998.0 mb)
Winds: from the S (170 degrees) at 10 MPH (9 knots; 4.6 m/s)
Visibility: 1.74 miles (2.80 km)
Ceiling: 400 feet AGL
Clouds: scattered clouds at 300 feet AGL
overcast cloud deck at 400 feet AGL
Weather: BR  (mist)

METAR text: EHAM 230055Z 15008KT 110V180 2400 BR BKN003 OVC004 M01/M01 Q0998 R18R/110095 BECMG 3500
Conditions at: EHAM (AMSTERDAM/SCHIPH, NL) observed 0055 UTC 23 January 2019
Temperature: -1.0°C (30°F)
Dewpoint: -1.0°C (30°F) [RH = 100%]
Pressure (altimeter): 29.47 inches Hg (998.0 mb)
Winds: from the SSE (150 degrees) at 9 MPH (8 knots; 4.1 m/s)
Visibility: 1.49 miles (2.40 km)
Ceiling: 300 feet AGL
Clouds: broken clouds at 300 feet AGL
overcast cloud deck at 400 feet AGL
Weather: BR  (mist)

METAR text: EHAM 230025Z 17011KT 2500 BR BKN003 OVC004 M01/M01 Q0998 R18R/110095 BECMG 3500
Conditions at: EHAM (AMSTERDAM/SCHIPH, NL) observed 0025 UTC 23 January 2019
Temperature: -1.0°C (30°F)
Dewpoint: -1.0°C (30°F) [RH = 100%]
Pressure (altimeter): 29.47 inches Hg (998.0 mb)
Winds: from the S (170 degrees) at 13 MPH (11 knots; 5.7 m/s)
Visibility: 1.55 miles (2.49 km)
Ceiling: 300 feet AGL
Clouds: broken clouds at 300 feet AGL
overcast cloud deck at 400 feet AGL
Weather: BR  (mist)

METAR text: EHAM 222355Z 18012KT 2000 BR SCT002 BKN003 M01/M01 Q0998 R18R/110095 NOSIG
Conditions at: EHAM (AMSTERDAM/SCHIPH, NL) observed 2355 UTC 22 January 2019
Temperature: -1.0°C (30°F)
Dewpoint: -1.0°C (30°F) [RH = 100%]
Pressure (altimeter): 29.47 inches Hg (998.0 mb)
Winds: from the S (180 degrees) at 14 MPH (12 knots; 6.2 m/s)
Visibility: 1.24 miles (2.00 km)
Ceiling: 300 feet AGL
Clouds: scattered clouds at 200 feet AGL
broken clouds at 300 feet AGL
Weather: BR  (mist)

METAR text: EHAM 222325Z 15008KT 1800 BR SCT002 BKN003 M01/M01 Q0998 R18R/110095 NOSIG
Conditions at: EHAM (AMSTERDAM/SCHIPH, NL) observed 2325 UTC 22 January 2019
Temperature: -1.0°C (30°F)
Dewpoint: -1.0°C (30°F) [RH = 100%]
Pressure (altimeter): 29.47 inches Hg (998.0 mb)
Winds: from the SSE (150 degrees) at 9 MPH (8 knots; 4.1 m/s)
Visibility: 1.12 miles (1.80 km)
Ceiling: 300 feet AGL
Clouds: scattered clouds at 200 feet AGL
broken clouds at 300 feet AGL
Weather: BR  (mist)

METAR text: EHAM 222255Z 18009KT 2100 BR SCT002 OVC003 M00/M01 Q0999 R18R/110095 NOSIG
Conditions at: EHAM (AMSTERDAM/SCHIPH, NL) observed 2255 UTC 22 January 2019
Temperature: 0.0°C (32°F)
Dewpoint: -1.0°C (30°F) [RH = 93%]
Pressure (altimeter): 29.50 inches Hg (999.0 mb)
Winds: from the S (180 degrees) at 10 MPH (9 knots; 4.6 m/s)
Visibility: 1.30 miles (2.09 km)
Ceiling: 300 feet AGL
Clouds: scattered clouds at 200 feet AGL
overcast cloud deck at 300 feet AGL
Weather: BR  (mist)

METAR text: EHAM 222225Z 18008KT 2500 BR SCT002 OVC003 M00/M01 Q0999 R18R/110095 NOSIG
Conditions at: EHAM (AMSTERDAM/SCHIPH, NL) observed 2225 UTC 22 January 2019
Temperature: 0.0°C (32°F)
Dewpoint: -1.0°C (30°F) [RH = 93%]
Pressure (altimeter): 29.50 inches Hg (999.0 mb)
Winds: from the S (180 degrees) at 9 MPH (8 knots; 4.1 m/s)
Visibility: 1.55 miles (2.49 km)
Ceiling: 300 feet AGL
Clouds: scattered clouds at 200 feet AGL
overcast cloud deck at 300 feet AGL
Weather: BR  (mist)

METAR text: EHAM 222155Z 18009KT 140V200 2700 BR BKN003 OVC004 M00/M01 Q0999 R18R/110095 NOSIG
Conditions at: EHAM (AMSTERDAM/SCHIPH, NL) observed 2155 UTC 22 January 2019
Temperature: 0.0°C (32°F)
Dewpoint: -1.0°C (30°F) [RH = 93%]
Pressure (altimeter): 29.50 inches Hg (999.0 mb)
Winds: from the S (180 degrees) at 10 MPH (9 knots; 4.6 m/s)
Visibility: 1.68 miles (2.70 km)
Ceiling: 300 feet AGL
Clouds: broken clouds at 300 feet AGL
overcast cloud deck at 400 feet AGL
Weather: BR  (mist)

METAR text: EHAM 222125Z 17008KT 3000 BR SCT003 BKN004 OVC005 M00/M00 Q0999 R18R/110095 BECMG 2500
Conditions at: EHAM (AMSTERDAM/SCHIPH, NL) observed 2125 UTC 22 January 2019
Temperature: 0.0°C (32°F)
Dewpoint: 0.0°C (32°F) [RH = 100%]
Pressure (altimeter): 29.50 inches Hg (999.0 mb)
Winds: from the S (170 degrees) at 9 MPH (8 knots; 4.1 m/s)
Visibility: 1.86 miles (2.99 km)
Ceiling: 400 feet AGL
Clouds: scattered clouds at 300 feet AGL
broken clouds at 400 feet AGL
overcast cloud deck at 500 feet AGL
Weather: BR  (mist)

METAR text: EHAM 222055Z 16008KT 2200 BR BKN003 OVC004 M00/M01 Q0999 R18R/110095 NOSIG
Conditions at: EHAM (AMSTERDAM/SCHIPH, NL) observed 2055 UTC 22 January 2019
Temperature: 0.0°C (32°F)
Dewpoint: -1.0°C (30°F) [RH = 93%]
Pressure (altimeter): 29.50 inches Hg (999.0 mb)
Winds: from the SSE (160 degrees) at 9 MPH (8 knots; 4.1 m/s)
Visibility: 1.37 miles (2.20 km)
Ceiling: 300 feet AGL
Clouds: broken clouds at 300 feet AGL
overcast cloud deck at 400 feet AGL
Weather: BR  (mist)

METAR text: EHAM 222025Z 17009KT 2000 BR SCT002 OVC003 M00/M01 Q0999 R18R/110095 NOSIG
Conditions at: EHAM (AMSTERDAM/SCHIPH, NL) observed 2025 UTC 22 January 2019
Temperature: 0.0°C (32°F)
Dewpoint: -1.0°C (30°F) [RH = 93%]
Pressure (altimeter): 29.50 inches Hg (999.0 mb)
Winds: from the S (170 degrees) at 10 MPH (9 knots; 4.6 m/s)
Visibility: 1.24 miles (2.00 km)
Ceiling: 300 feet AGL
Clouds: scattered clouds at 200 feet AGL
overcast cloud deck at 300 feet AGL
Weather: BR  (mist)

METAR text: EHAM 221955Z 16011KT 2000 BR FEW002 OVC003 M00/M01 Q0999 R18R/110095 NOSIG
Conditions at: EHAM (AMSTERDAM/SCHIPH, NL) observed 1955 UTC 22 January 2019
Temperature: 0.0°C (32°F)
Dewpoint: -1.0°C (30°F) [RH = 93%]
Pressure (altimeter): 29.50 inches Hg (999.0 mb)
Winds: from the SSE (160 degrees) at 13 MPH (11 knots; 5.7 m/s)
Visibility: 1.24 miles (2.00 km)
Ceiling: 300 feet AGL
Clouds: few clouds at 200 feet AGL
overcast cloud deck at 300 feet AGL
Weather: BR  (mist)

METAR text: EHAM 221925Z 15010KT 2100 BR BKN003 OVC004 M00/M01 Q1000 R18R/110095 NOSIG
Conditions at: EHAM (AMSTERDAM/SCHIPH, NL) observed 1925 UTC 22 January 2019
Temperature: 0.0°C (32°F)
Dewpoint: -1.0°C (30°F) [RH = 93%]
Pressure (altimeter): 29.53 inches Hg (1000.0 mb)
Winds: from the SSE (150 degrees) at 12 MPH (10 knots; 5.1 m/s)
Visibility: 1.30 miles (2.09 km)
Ceiling: 300 feet AGL
Clouds: broken clouds at 300 feet AGL
overcast cloud deck at 400 feet AGL
Weather: BR  (mist)

METAR text: EHAM 221855Z 16009KT 2500 BR SCT003 OVC004 M00/M00 Q1000 R18R/110095 BECMG OVC003
Conditions at: EHAM (AMSTERDAM/SCHIPH, NL) observed 1855 UTC 22 January 2019
Temperature: 0.0°C (32°F)
Dewpoint: 0.0°C (32°F) [RH = 100%]
Pressure (altimeter): 29.53 inches Hg (1000.0 mb)
Winds: from the SSE (160 degrees) at 10 MPH (9 knots; 4.6 m/s)
Visibility: 1.55 miles (2.49 km)
Ceiling: 400 feet AGL
Clouds: scattered clouds at 300 feet AGL
overcast cloud deck at 400 feet AGL
Weather: BR  (mist)

METAR text: EHAM 221825Z 17010KT 2500 BR OVC004 M00/M01 Q1000 R18R/110095 NOSIG
Conditions at: EHAM (AMSTERDAM/SCHIPH, NL) observed 1825 UTC 22 January 2019
Temperature: 0.0°C (32°F)
Dewpoint: -1.0°C (30°F) [RH = 93%]
Pressure (altimeter): 29.53 inches Hg (1000.0 mb)
Winds: from the S (170 degrees) at 12 MPH (10 knots; 5.1 m/s)
Visibility: 1.55 miles (2.49 km)
Ceiling: 400 feet AGL
Clouds: overcast cloud deck at 400 feet AGL
Weather: BR  (mist)

METAR text: EHAM 221755Z 16010KT 2700 BR OVC004 M00/M01 Q1000 R18R/110095 NOSIG
Conditions at: EHAM (AMSTERDAM/SCHIPH, NL) observed 1755 UTC 22 January 2019
Temperature: 0.0°C (32°F)
Dewpoint: -1.0°C (30°F) [RH = 93%]
Pressure (altimeter): 29.53 inches Hg (1000.0 mb)
Winds: from the SSE (160 degrees) at 12 MPH (10 knots; 5.1 m/s)
Visibility: 1.68 miles (2.70 km)
Ceiling: 400 feet AGL
Clouds: overcast cloud deck at 400 feet AGL
Weather: BR  (mist)

METAR text: EHAM 221725Z 16011KT 3000 BR OVC004 M00/M01 Q1000 R18R/110095 BECMG 2000
Conditions at: EHAM (AMSTERDAM/SCHIPH, NL) observed 1725 UTC 22 January 2019
Temperature: 0.0°C (32°F)
Dewpoint: -1.0°C (30°F) [RH = 93%]
Pressure (altimeter): 29.53 inches Hg (1000.0 mb)
Winds: from the SSE (160 degrees) at 13 MPH (11 knots; 5.7 m/s)
Visibility: 1.86 miles (2.99 km)
Ceiling: 400 feet AGL
Clouds: overcast cloud deck at 400 feet AGL
Weather: BR  (mist)

METAR text: EHAM 221655Z 17011KT 3500 BR OVC004 M00/M01 Q1000 R18R/110095 NOSIG
Conditions at: EHAM (AMSTERDAM/SCHIPH, NL) observed 1655 UTC 22 January 2019
Temperature: 0.0°C (32°F)
Dewpoint: -1.0°C (30°F) [RH = 93%]
Pressure (altimeter): 29.53 inches Hg (1000.0 mb)
Winds: from the S (170 degrees) at 13 MPH (11 knots; 5.7 m/s)
Visibility: 2.17 miles (3.49 km)
Ceiling: 400 feet AGL
Clouds: overcast cloud deck at 400 feet AGL
Weather: BR  (mist)

METAR text: EHAM 221625Z 17012KT 140V200 4000 BR OVC005 M00/M01 Q1000 R18R/110095 NOSIG
Conditions at: EHAM (AMSTERDAM/SCHIPH, NL) observed 1625 UTC 22 January 2019
Temperature: 0.0°C (32°F)
Dewpoint: -1.0°C (30°F) [RH = 93%]
Pressure (altimeter): 29.53 inches Hg (1000.0 mb)
Winds: from the S (170 degrees) at 14 MPH (12 knots; 6.2 m/s)
Visibility: 2.49 miles (4.01 km)
Ceiling: 500 feet AGL
Clouds: overcast cloud deck at 500 feet AGL
Weather: BR  (mist)

METAR text: EHAM 221555Z 17012KT 140V200 4000 BR OVC005 M01/M01 Q1000 R18R/110095 NOSIG
Conditions at: EHAM (AMSTERDAM/SCHIPH, NL) observed 1555 UTC 22 January 2019
Temperature: -1.0°C (30°F)
Dewpoint: -1.0°C (30°F) [RH = 100%]
Pressure (altimeter): 29.53 inches Hg (1000.0 mb)
Winds: from the S (170 degrees) at 14 MPH (12 knots; 6.2 m/s)
Visibility: 2.49 miles (4.01 km)
Ceiling: 500 feet AGL
Clouds: overcast cloud deck at 500 feet AGL
Weather: BR  (mist)

METAR text: EHAM 221525Z 16012KT 3800 BR OVC005 M01/M01 Q1001 R18R/110095 NOSIG
Conditions at: EHAM (AMSTERDAM/SCHIPH, NL) observed 1525 UTC 22 January 2019
Temperature: -1.0°C (30°F)
Dewpoint: -1.0°C (30°F) [RH = 100%]
Pressure (altimeter): 29.56 inches Hg (1001.0 mb)
Winds: from the SSE (160 degrees) at 14 MPH (12 knots; 6.2 m/s)
Visibility: 2.36 miles (3.80 km)
Ceiling: 500 feet AGL
Clouds: overcast cloud deck at 500 feet AGL
Weather: BR  (mist)

METAR text: EHAM 221455Z 17012KT 3700 BR BKN005 OVC006 M01/M01 Q1001 R18R/110095 NOSIG
Conditions at: EHAM (AMSTERDAM/SCHIPH, NL) observed 1455 UTC 22 January 2019
Temperature: -1.0°C (30°F)
Dewpoint: -1.0°C (30°F) [RH = 100%]
Pressure (altimeter): 29.56 inches Hg (1001.0 mb)
Winds: from the S (170 degrees) at 14 MPH (12 knots; 6.2 m/s)
Visibility: 2.30 miles (3.70 km)
Ceiling: 500 feet AGL
Clouds: broken clouds at 500 feet AGL
overcast cloud deck at 600 feet AGL
Weather: BR  (mist)

METAR text: EHAM 221425Z 17012KT 3300 -SG SCT005 BKN007 OVC010 M01/M02 Q1001 RESG R18R/110095 BECMG 3000 BR
Conditions at: EHAM (AMSTERDAM/SCHIPH, NL) observed 1425 UTC 22 January 2019
Temperature: -1.0°C (30°F)
Dewpoint: -2.0°C (28°F) [RH = 93%]
Pressure (altimeter): 29.56 inches Hg (1001.0 mb)
Winds: from the S (170 degrees) at 14 MPH (12 knots; 6.2 m/s)
Visibility: 2.05 miles (3.30 km)
Ceiling: 700 feet AGL
Clouds: scattered clouds at 500 feet AGL
broken clouds at 700 feet AGL
overcast cloud deck at 1000 feet AGL
Weather: -SG  (light snow grains)

METAR text: EHAM 221355Z 17013KT 2000 R18C/1500N R27/1900N R18R/1800U R06/1400D SG SCT005 BKN008 OVC010 M01/M02 Q1001 R18C/610195 BECMG 3000 BR
Conditions at: EHAM (AMSTERDAM/SCHIPH, NL) observed 1355 UTC 22 January 2019
Temperature: -1.0°C (30°F)
Dewpoint: -2.0°C (28°F) [RH = 93%]
Pressure (altimeter): 29.56 inches Hg (1001.0 mb)
Winds: from the S (170 degrees) at 15 MPH (13 knots; 6.7 m/s)
Visibility: 1.24 miles (2.00 km)
Ceiling: 800 feet AGL
Clouds: scattered clouds at 500 feet AGL
broken clouds at 800 feet AGL
overcast cloud deck at 1000 feet AGL
Weather: SG  (moderate snow grains)

METAR text: EHAM 221325Z 17011KT 2000 -SN FEW004 SCT006 BKN007 M01/M02 Q1002 R18C/610195 BECMG 3000 BR
Conditions at: EHAM (AMSTERDAM/SCHIPH, NL) observed 1325 UTC 22 January 2019
Temperature: -1.0°C (30°F)
Dewpoint: -2.0°C (28°F) [RH = 93%]
Pressure (altimeter): 29.59 inches Hg (1002.0 mb)
Winds: from the S (170 degrees) at 13 MPH (11 knots; 5.7 m/s)
Visibility: 1.24 miles (2.00 km)
Ceiling: 700 feet AGL
Clouds: few clouds at 400 feet AGL
scattered clouds at 600 feet AGL
broken clouds at 700 feet AGL
Weather: -SN  (light snow)

METAR text: EHAM 221255Z 17013KT 1800 -SN FEW005 BKN007 BKN013 M01/M02 Q1002 R18C/610195 TEMPO 1400 BECMG 3000 BR
Conditions at: EHAM (AMSTERDAM/SCHIPH, NL) observed 1255 UTC 22 January 2019
Temperature: -1.0°C (30°F)
Dewpoint: -2.0°C (28°F) [RH = 93%]
Pressure (altimeter): 29.59 inches Hg (1002.0 mb)
Winds: from the S (170 degrees) at 15 MPH (13 knots; 6.7 m/s)
Visibility: 1.12 miles (1.80 km)
Ceiling: 700 feet AGL
Clouds: few clouds at 500 feet AGL
broken clouds at 700 feet AGL
broken clouds at 1300 feet AGL
Weather: -SN  (light snow)

METAR text: EHAM 221225Z 17014KT 1400 R18C/1400D R27/1800D R18R/P2000N R06/P2000N -SN FEW005 BKN007 BKN010 M01/M02 Q1002 R18R/610194 TEMPO 2000
Conditions at: EHAM (AMSTERDAM/SCHIPH, NL) observed 1225 UTC 22 January 2019
Temperature: -1.0°C (30°F)
Dewpoint: -2.0°C (28°F) [RH = 93%]
Pressure (altimeter): 29.59 inches Hg (1002.0 mb)
Winds: from the S (170 degrees) at 16 MPH (14 knots; 7.2 m/s)
Visibility: 0.87 miles (1.40 km)
Ceiling: 700 feet AGL
Clouds: few clouds at 500 feet AGL
broken clouds at 700 feet AGL
broken clouds at 1000 feet AGL
Weather: -SN  (light snow)

METAR text: EHAM 221155Z 17013KT 1400 R18C/1500N R27/1500D R18R/P2000U R06/1500N -SN FEW005 BKN007 BKN010 M01/M02 Q1003 R18R/610194 TEMPO 1200
Conditions at: EHAM (AMSTERDAM/SCHIPH, NL) observed 1155 UTC 22 January 2019
Temperature: -1.0°C (30°F)
Dewpoint: -2.0°C (28°F) [RH = 93%]
Pressure (altimeter): 29.62 inches Hg (1003.0 mb)
Winds: from the S (170 degrees) at 15 MPH (13 knots; 6.7 m/s)
Visibility: 0.87 miles (1.40 km)
Ceiling: 700 feet AGL
Clouds: few clouds at 500 feet AGL
broken clouds at 700 feet AGL
broken clouds at 1000 feet AGL
Weather: -SN  (light snow)

METAR text: EHAM 221125Z 17013KT 1800 -SN FEW005 BKN007 BKN009 M01/M02 Q1003 R18R/610194 TEMPO 1200
Conditions at: EHAM (AMSTERDAM/SCHIPH, NL) observed 1125 UTC 22 January 2019
Temperature: -1.0°C (30°F)
Dewpoint: -2.0°C (28°F) [RH = 93%]
Pressure (altimeter): 29.62 inches Hg (1003.0 mb)
Winds: from the S (170 degrees) at 15 MPH (13 knots; 6.7 m/s)
Visibility: 1.12 miles (1.80 km)
Ceiling: 700 feet AGL
Clouds: few clouds at 500 feet AGL
broken clouds at 700 feet AGL
broken clouds at 900 feet AGL
Weather: -SN  (light snow)

METAR text: EHAM 221055Z 17014KT 2000 -SN FEW006 BKN007 BKN011 M01/M02 Q1003 TEMPO 1200
Conditions at: EHAM (AMSTERDAM/SCHIPH, NL) observed 1055 UTC 22 January 2019
Temperature: -1.0°C (30°F)
Dewpoint: -2.0°C (28°F) [RH = 93%]
Pressure (altimeter): 29.62 inches Hg (1003.0 mb)
Winds: from the S (170 degrees) at 16 MPH (14 knots; 7.2 m/s)
Visibility: 1.24 miles (2.00 km)
Ceiling: 700 feet AGL
Clouds: few clouds at 600 feet AGL
broken clouds at 700 feet AGL
broken clouds at 1100 feet AGL
Weather: -SN  (light snow)

METAR text: EHAM 221025Z 17015KT 2500 -SN FEW005 BKN007 BKN012 M01/M02 Q1004 TEMPO 1200
Conditions at: EHAM (AMSTERDAM/SCHIPH, NL) observed 1025 UTC 22 January 2019
Temperature: -1.0°C (30°F)
Dewpoint: -2.0°C (28°F) [RH = 93%]
Pressure (altimeter): 29.65 inches Hg (1004.0 mb)
Winds: from the S (170 degrees) at 17 MPH (15 knots; 7.7 m/s)
Visibility: 1.55 miles (2.49 km)
Ceiling: 700 feet AGL
Clouds: few clouds at 500 feet AGL
broken clouds at 700 feet AGL
broken clouds at 1200 feet AGL
Weather: -SN  (light snow)

METAR text: EHAM 220955Z 17014KT 2000 -SN FEW005 SCT008 BKN017 M02/M02 Q1004 TEMPO 1200 BKN005
Conditions at: EHAM (AMSTERDAM/SCHIPH, NL) observed 0955 UTC 22 January 2019
Temperature: -2.0°C (28°F)
Dewpoint: -2.0°C (28°F) [RH = 100%]
Pressure (altimeter): 29.65 inches Hg (1004.0 mb)
Winds: from the S (170 degrees) at 16 MPH (14 knots; 7.2 m/s)
Visibility: 1.24 miles (2.00 km)
Ceiling: 1700 feet AGL
Clouds: few clouds at 500 feet AGL
scattered clouds at 800 feet AGL
broken clouds at 1700 feet AGL
Weather: -SN  (light snow)

METAR text: EHAM 220925Z 17017KT 3500 -SN BKN017 OVC035 M01/M04 Q1004 TEMPO 1000 BKN004
Conditions at: EHAM (AMSTERDAM/SCHIPH, NL) observed 0925 UTC 22 January 2019
Temperature: -1.0°C (30°F)
Dewpoint: -4.0°C (25°F) [RH = 80%]
Pressure (altimeter): 29.65 inches Hg (1004.0 mb)
Winds: from the S (170 degrees) at 20 MPH (17 knots; 8.7 m/s)
Visibility: 2.17 miles (3.49 km)
Ceiling: 1700 feet AGL
Clouds: broken clouds at 1700 feet AGL
overcast cloud deck at 3500 feet AGL
Weather: -SN  (light snow)

METAR text: EHAM 220855Z 16016KT 130V190 9999 BKN018 M01/M04 Q1004 BECMG 2000 -SN OVC010
Conditions at: EHAM (AMSTERDAM/SCHIPH, NL) observed 0855 UTC 22 January 2019
Temperature: -1.0°C (30°F)
Dewpoint: -4.0°C (25°F) [RH = 80%]
Pressure (altimeter): 29.65 inches Hg (1004.0 mb)
Winds: from the SSE (160 degrees) at 18 MPH (16 knots; 8.2 m/s)
Visibility: 6 or more miles (10+ km)
Ceiling: 1800 feet AGL
Clouds: broken clouds at 1800 feet AGL
Weather: no significant weather observed at this time

METAR text: EHAM 220825Z 16017KT 9999 FEW035 M02/M05 Q1005 BECMG FM0900 3000 -SN OVC015
Conditions at: EHAM (AMSTERDAM/SCHIPH, NL) observed 0825 UTC 22 January 2019
Temperature: -2.0°C (28°F)
Dewpoint: -5.0°C (23°F) [RH = 80%]
Pressure (altimeter): 29.68 inches Hg (1005.0 mb)
Winds: from the SSE (160 degrees) at 20 MPH (17 knots; 8.7 m/s)
Visibility: 6 or more miles (10+ km)
Ceiling: at least 12,000 feet AGL
Clouds: few clouds at 3500 feet AGL
Weather: no significant weather observed at this time

METAR text: EHAM 220755Z 16015KT 110V180 9999 FEW035 M02/M05 Q1005 BECMG FM0900 3000 -SN OVC015
Conditions at: EHAM (AMSTERDAM/SCHIPH, NL) observed 0755 UTC 22 January 2019
Temperature: -2.0°C (28°F)
Dewpoint: -5.0°C (23°F) [RH = 80%]
Pressure (altimeter): 29.68 inches Hg (1005.0 mb)
Winds: from the SSE (160 degrees) at 17 MPH (15 knots; 7.7 m/s)
Visibility: 6 or more miles (10+ km)
Ceiling: at least 12,000 feet AGL
Clouds: few clouds at 3500 feet AGL
Weather: no significant weather observed at this time

METAR text: EHAM 220725Z 16014KT 9999 FEW035 M02/M05 Q1005 NOSIG
Conditions at: EHAM (AMSTERDAM/SCHIPH, NL) observed 0725 UTC 22 January 2019
Temperature: -2.0°C (28°F)
Dewpoint: -5.0°C (23°F) [RH = 80%]
Pressure (altimeter): 29.68 inches Hg (1005.0 mb)
Winds: from the SSE (160 degrees) at 16 MPH (14 knots; 7.2 m/s)
Visibility: 6 or more miles (10+ km)
Ceiling: at least 12,000 feet AGL
Clouds: few clouds at 3500 feet AGL
Weather: no significant weather observed at this time

METAR text: EHAM 220655Z 16014KT 9999 SCT035 M02/M05 Q1006 NOSIG
Conditions at: EHAM (AMSTERDAM/SCHIPH, NL) observed 0655 UTC 22 January 2019
Temperature: -2.0°C (28°F)
Dewpoint: -5.0°C (23°F) [RH = 80%]
Pressure (altimeter): 29.70 inches Hg (1006.0 mb)
Winds: from the SSE (160 degrees) at 16 MPH (14 knots; 7.2 m/s)
Visibility: 6 or more miles (10+ km)
Ceiling: at least 12,000 feet AGL
Clouds: scattered clouds at 3500 feet AGL
Weather: no significant weather observed at this time

METAR text: EHAM 220625Z 16013KT 9999 FEW036 M02/M05 Q1006 NOSIG
Conditions at: EHAM (AMSTERDAM/SCHIPH, NL) observed 0625 UTC 22 January 2019
Temperature: -2.0°C (28°F)
Dewpoint: -5.0°C (23°F) [RH = 80%]
Pressure (altimeter): 29.70 inches Hg (1006.0 mb)
Winds: from the SSE (160 degrees) at 15 MPH (13 knots; 6.7 m/s)
Visibility: 6 or more miles (10+ km)
Ceiling: at least 12,000 feet AGL
Clouds: few clouds at 3600 feet AGL
Weather: no significant weather observed at this time

METAR text: EHAM 220555Z 16015KT CAVOK M02/M05 Q1007 NOSIG
Conditions at: EHAM (AMSTERDAM/SCHIPH, NL) observed 0555 UTC 22 January 2019
Temperature: -2.0°C (28°F)
Dewpoint: -5.0°C (23°F) [RH = 80%]
Pressure (altimeter): 29.73 inches Hg (1007.0 mb)
Winds: from the SSE (160 degrees) at 17 MPH (15 knots; 7.7 m/s)
Visibility: 6 or more miles (10+ km)
Ceiling: ceiling and visibility are OK
Clouds: unknown
Weather: no significant weather observed at this time

METAR text: EHAM 220525Z 16013KT CAVOK M02/M05 Q1007 NOSIG
Conditions at: EHAM (AMSTERDAM/SCHIPH, NL) observed 0525 UTC 22 January 2019
Temperature: -2.0°C (28°F)
Dewpoint: -5.0°C (23°F) [RH = 80%]
Pressure (altimeter): 29.73 inches Hg (1007.0 mb)
Winds: from the SSE (160 degrees) at 15 MPH (13 knots; 6.7 m/s)
Visibility: 6 or more miles (10+ km)
Ceiling: ceiling and visibility are OK
Clouds: unknown
Weather: no significant weather observed at this time

METAR text: EHAM 220455Z 16012KT CAVOK M02/M05 Q1008 NOSIG
Conditions at: EHAM (AMSTERDAM/SCHIPH, NL) observed 0455 UTC 22 January 2019
Temperature: -2.0°C (28°F)
Dewpoint: -5.0°C (23°F) [RH = 80%]
Pressure (altimeter): 29.76 inches Hg (1008.0 mb)
Winds: from the SSE (160 degrees) at 14 MPH (12 knots; 6.2 m/s)
Visibility: 6 or more miles (10+ km)
Ceiling: ceiling and visibility are OK
Clouds: unknown
Weather: no significant weather observed at this time

METAR text: EHAM 220425Z 16012KT CAVOK M02/M05 Q1009 NOSIG
Conditions at: EHAM (AMSTERDAM/SCHIPH, NL) observed 0425 UTC 22 January 2019
Temperature: -2.0°C (28°F)
Dewpoint: -5.0°C (23°F) [RH = 80%]
Pressure (altimeter): 29.79 inches Hg (1009.0 mb)
Winds: from the SSE (160 degrees) at 14 MPH (12 knots; 6.2 m/s)
Visibility: 6 or more miles (10+ km)
Ceiling: ceiling and visibility are OK
Clouds: unknown
Weather: no significant weather observed at this time

Forecast for: EHAM (AMSTERDAM/SCHIPH, NL)
Text: TAF EHAM 231114Z 2312/2418 05007KT 9999 BKN013
Forecast period: 1200 UTC 23 January 2019 to 0000 UTC 24 January 2019
Forecast type: FROM: standard forecast or significant change
Winds: from the NE (50 degrees) at 8 MPH (7 knots; 3.6 m/s)
Visibility: 6 or more miles 10+ km)
Ceiling: 1300 feet AGL
Clouds: broken clouds at 1300 feet AGL
Weather: no significant weather forecast for this period
Text: PROB30 2315/2402 6000 SCT006 BKN008
Forecast period: 1500 UTC 23 January 2019 to 0200 UTC 24 January 2019
Forecast type: PROBABLE: 30 percent likelihood of the following during this time
Visibility: 4 miles (6 km)
Ceiling: 800 feet AGL
Clouds: scattered clouds at 600 feet AGL
broken clouds at 800 feet AGL
Weather: no significant weather forecast for this period
Text: BECMG 2400/2403 VRB03KT 4000 BR
Forecast period: 0000 to 0600 UTC 24 January 2019
Forecast type: BECOMING: Conditions expected to become as follows by 0300 UTC 24 January 2019
Winds: variable direction winds at 3 MPH (3 knots; 1.5 m/s)
Visibility: 2.49 miles (4.01 km)
Ceiling: 1300 feet AGL
Clouds: broken clouds at 1300 feet AGL
Weather: BR  (mist)
Text: PROB40
Forecast period: 0200 to 0800 UTC 24 January 2019
Forecast type: TEMPORARY: The following changes expected for less than half the time period
Visibility: 1.55 miles (2.49 km)
Ceiling: at least 12,000 feet AGL
Clouds: scattered clouds at 1200 feet AGL
Weather: MIFG  (shallow fog)
Text: TEMPO 2402/2408 2500 MIFG SCT012
Forecast period: 0600 to 1800 UTC 24 January 2019
Forecast type: BECOMING: Conditions expected to become as follows by 0900 UTC 24 January 2019
Winds: from the SSE (160 degrees) at 9 MPH (8 knots; 4.1 m/s)
Visibility: 5 miles (8 km)
Ceiling: at least 12,000 feet AGL
Clouds: scattered clouds at 1800 feet AGL
Weather: NSW  (no significant weather)